Time;durP1;ratioP1;P1;durP2;ratioP2;P2;SDS_P1;SDS_P2;PMS_P1;PMS_P2;Temp;Humidity;BMP_temperature;BMP_pressure;BME280_temperature;BME280_humidity;BME280_pressure;Samples;Min_cycle;Max_cycle;Signal;HPM_P1;HPM_P2
2021/06/25 00:01:12;;;;;;;;;20.50;19.25;;;;;17.71;48.23;101743.03;5054307;28;45504;-73
2021/06/25 00:03:39;;;;;;;;;22.50;22.50;;;;;17.67;48.21;101739.63;5054484;28;45565;-72
2021/06/25 00:06:04;;;;;;;;;22.75;20.25;;;;;17.63;48.71;101725.63;5054746;28;45391;-72
2021/06/25 00:08:29;;;;;;;;;16.50;14.75;;;;;17.61;48.78;101726.59;5054068;28;46834;-72
2021/06/25 00:10:55;;;;;;;;;20.25;20.25;;;;;17.58;48.89;101724.91;5054019;28;45359;-73
2021/06/25 00:13:20;;;;;;;;;24.75;22.25;;;;;17.55;49.20;101729.47;5069537;28;45552;-73
2021/06/25 00:15:45;;;;;;;;;22.25;21.00;;;;;17.52;49.57;101724.25;5054666;28;45328;-73
2021/06/25 00:18:11;;;;;;;;;25.00;22.25;;;;;17.46;49.56;101725.34;5054722;28;45409;-73
2021/06/25 00:20:36;;;;;;;;;21.50;18.00;;;;;17.44;49.92;101721.00;5053957;28;45384;-73
2021/06/25 00:23:02;;;;;;;;;22.25;19.00;;;;;17.39;49.78;101722.00;5054093;28;45385;-73
2021/06/25 00:25:28;;;;;;;;;21.50;18.25;;;;;17.37;49.96;101720.34;5053920;28;45438;-73
2021/06/25 00:27:53;;;;;;;;;22.00;21.00;;;;;17.34;49.86;101718.66;5053186;28;46362;-73
2021/06/25 00:30:19;;;;;;;;;18.50;17.75;;;;;17.32;50.14;101716.97;5054065;28;45370;-73
2021/06/25 00:32:45;;;;;;;;;25.50;22.50;;;;;17.29;50.19;101712.66;5054383;28;45448;-73
2021/06/25 00:35:11;;;;;;;;;21.00;20.25;;;;;17.28;50.26;101717.97;5053900;28;45478;-73
2021/06/25 00:37:37;;;;;;;;;22.25;22.25;;;;;17.26;50.28;101712.75;5053774;28;47502;-73
2021/06/25 00:40:04;;;;;;;;;24.25;20.00;;;;;17.26;50.60;101715.41;5053894;28;45470;-73
2021/06/25 00:42:29;;;;;;;;;26.00;22.00;;;;;17.23;50.23;101715.47;5053521;28;45357;-73
2021/06/25 00:44:55;;;;;;;;;21.50;19.00;;;;;17.20;50.34;101703.22;5054566;28;45399;-73
2021/06/25 00:47:20;;;;;;;;;19.25;16.75;;;;;17.19;50.64;101705.94;5053769;28;45590;-73
2021/06/25 00:49:45;;;;;;;;;28.75;22.50;;;;;17.18;50.61;101704.19;5049088;28;46187;-72
2021/06/25 00:52:17;;;;;;;;;25.50;22.50;;;;;17.17;50.66;101703.34;5042180;28;45453;-73
2021/06/25 00:54:43;;;;;;;;;19.00;19.00;;;;;17.14;50.92;101697.28;5040532;28;45434;-73
2021/06/25 00:57:09;;;;;;;;;23.25;20.50;;;;;17.13;50.92;101696.41;5057495;28;46318;-72
2021/06/25 00:59:34;;;;;;;;;23.75;20.25;;;;;17.12;50.97;101702.63;5056818;28;45524;-73
2021/06/25 01:02:00;;;;;;;;;23.25;20.25;;;;;17.11;51.09;101692.06;5056815;28;45358;-71
2021/06/25 01:04:25;;;;;;;;;23.50;20.00;;;;;17.09;51.28;101685.97;5057143;28;45399;-72
2021/06/25 01:06:51;;;;;;;;;22.00;21.25;;;;;17.06;51.17;101683.44;5056825;28;45986;-73
2021/06/25 01:09:20;;;;;;;;;22.50;21.25;;;;;17.06;51.18;101684.28;5057303;28;45390;-73
2021/06/25 01:11:45;;;;;;;;;24.50;22.25;;;;;17.04;51.68;101677.31;5056373;28;45564;-72
2021/06/25 01:14:11;;;;;;;;;23.00;21.75;;;;;17.03;51.52;101672.94;5056661;28;45436;-72
2021/06/25 01:16:36;;;;;;;;;23.75;18.25;;;;;17.01;51.64;101677.44;5056832;28;46393;-72
2021/06/25 01:19:02;;;;;;;;;25.00;23.25;;;;;16.99;51.96;101682.75;5056827;28;45437;-72
2021/06/25 01:21:28;;;;;;;;;20.75;20.75;;;;;16.98;51.98;101679.25;5056665;28;45481;-73
2021/06/25 01:23:53;;;;;;;;;27.75;22.75;;;;;16.96;52.46;101677.56;5055085;28;45497;-73
2021/06/25 01:26:18;;;;;;;;;19.75;19.00;;;;;16.94;52.32;101674.97;5056077;28;46912;-73
2021/06/25 01:28:44;;;;;;;;;21.25;20.25;;;;;16.93;52.62;101667.94;5056572;28;45605;-73
2021/06/25 01:31:09;;;;;;;;;25.25;23.75;;;;;16.91;52.48;101664.50;5056964;28;45524;-73
2021/06/25 01:33:35;;;;;;;;;23.00;22.50;;;;;16.91;52.39;101667.13;5056869;28;45388;-73
2021/06/25 01:36:02;;;;;;;;;22.75;21.75;;;;;16.89;52.36;101668.09;5057084;28;46135;-73
2021/06/25 01:38:27;;;;;;;;;21.50;20.75;;;;;16.87;52.49;101670.78;5056488;28;45380;-73
2021/06/25 01:40:54;;;;;;;;;23.00;21.25;;;;;16.86;52.46;101669.06;5056148;28;45497;-73
2021/06/25 01:43:21;;;;;;;;;24.50;21.00;;;;;16.86;52.49;101673.50;5056464;28;45415;-73
2021/06/25 01:45:48;;;;;;;;;25.00;22.50;;;;;16.83;53.00;101663.00;5056542;28;46109;-73
2021/06/25 01:48:14;;;;;;;;;29.00;25.50;;;;;16.81;53.43;101654.28;5057002;28;45417;-73
2021/06/25 01:50:41;;;;;;;;;24.75;21.00;;;;;16.80;53.01;101663.94;5056621;28;45557;-73
2021/06/25 01:53:10;;;;;;;;;21.00;20.50;;;;;16.78;53.50;101655.19;5056012;28;45324;-72
2021/06/25 01:55:41;;;;;;;;;22.00;21.00;;;;;16.76;53.27;101646.44;5055992;28;46967;-72
2021/06/25 01:58:19;;;;;;;;;24.00;22.75;;;;;16.76;53.41;101643.81;5056230;28;45727;-72
2021/06/25 02:01:14;;;;;;;;;22.50;21.50;;;;;16.75;53.57;101648.19;5040633;28;45473;-72
2021/06/25 02:03:40;;;;;;;;;28.75;25.25;;;;;16.71;54.00;101638.66;5047231;28;45339;-71
2021/06/25 02:06:07;;;;;;;;;27.25;23.75;;;;;16.71;54.02;101635.16;5055208;28;47033;-71
2021/06/25 02:08:33;;;;;;;;;25.50;22.50;;;;;16.68;53.82;101636.09;5055720;28;45312;-72
2021/06/25 02:11:00;;;;;;;;;25.25;22.50;;;;;16.66;53.75;101635.28;5055748;28;45425;-71
2021/06/25 02:13:25;;;;;;;;;22.75;21.00;;;;;16.67;53.82;101634.38;5055860;28;45386;-72
2021/06/25 02:15:50;;;;;;;;;25.00;23.75;;;;;16.66;54.20;101631.75;5056088;28;45438;-72
2021/06/25 02:18:17;;;;;;;;;33.00;28.50;;;;;16.65;54.44;101630.03;5056286;28;45397;-72
2021/06/25 02:20:42;;;;;;;;;28.50;26.50;;;;;16.64;54.20;101636.25;5055064;28;45533;-72
2021/06/25 02:23:08;;;;;;;;;30.75;27.00;;;;;16.63;54.19;101631.88;5054220;28;45379;-73
2021/06/25 02:25:33;;;;;;;;;33.25;26.50;;;;;16.62;54.59;101631.00;5055638;28;46129;-73
2021/06/25 02:27:58;;;;;;;;;30.25;23.75;;;;;16.62;54.61;101628.38;5055890;28;45448;-73
2021/06/25 02:30:24;;;;;;;;;24.25;22.50;;;;;16.61;54.74;101623.13;5056097;28;45730;-72
2021/06/25 02:32:49;;;;;;;;;21.00;20.00;;;;;16.59;54.66;101617.00;5056102;28;45481;-72
2021/06/25 02:35:15;;;;;;;;;30.00;25.00;;;;;16.59;54.90;101619.66;5055593;28;45417;-72
2021/06/25 02:37:42;;;;;;;;;25.75;24.25;;;;;16.58;55.25;101617.94;5055296;28;45517;-72
2021/06/25 02:40:08;;;;;;;;;28.75;25.75;;;;;16.56;55.15;101613.56;5055659;28;45415;-73
2021/06/25 02:42:35;;;;;;;;;24.75;23.00;;;;;16.54;55.79;101607.47;5055648;28;45489;-73
2021/06/25 02:45:01;;;;;;;;;25.00;23.25;;;;;16.51;55.69;101610.19;5055824;28;45402;-71
2021/06/25 02:47:26;;;;;;;;;28.50;27.50;;;;;16.51;55.78;101609.31;5055253;28;45976;-73
2021/06/25 02:49:51;;;;;;;;;29.25;26.00;;;;;16.49;55.63;101609.38;5055462;28;45480;-72
2021/06/25 02:52:17;;;;;;;;;22.00;17.00;;;;;16.47;55.43;101603.28;5055014;28;45446;-73
2021/06/25 02:54:43;;;;;;;;;30.50;29.25;;;;;16.47;55.82;101608.56;5055162;28;45435;-73
2021/06/25 02:57:08;;;;;;;;;27.75;26.50;;;;;16.45;55.97;101610.38;5055813;28;45339;-73
2021/06/25 02:59:34;;;;;;;;;27.00;27.00;;;;;16.44;56.22;101613.94;5055061;28;45343;-73
2021/06/25 03:01:59;;;;;;;;;28.75;27.00;;;;;16.42;55.86;101612.25;5050600;28;45525;-73
2021/06/25 03:04:25;;;;;;;;;25.75;24.50;;;;;16.42;55.95;101617.53;5044738;28;45426;-72
2021/06/25 03:06:50;;;;;;;;;27.75;27.50;;;;;16.40;56.22;101608.78;5054948;28;45516;-73
2021/06/25 03:09:15;;;;;;;;;33.75;29.00;;;;;16.39;56.46;101617.63;5055129;28;45499;-73
2021/06/25 03:11:41;;;;;;;;;31.00;24.50;;;;;16.36;56.52;101610.66;5054121;28;45712;-73
2021/06/25 03:14:06;;;;;;;;;28.50;27.00;;;;;16.35;56.35;101601.00;5056060;28;45528;-73
2021/06/25 03:16:32;;;;;;;;;27.00;25.50;;;;;16.34;56.29;101604.56;5056677;28;45545;-72
2021/06/25 03:18:57;;;;;;;;;30.50;28.25;;;;;16.32;56.75;101609.03;5056490;28;45444;-73
2021/06/25 03:21:22;;;;;;;;;30.75;25.50;;;;;16.33;56.85;101606.34;5054812;28;45385;-73
2021/06/25 03:23:48;;;;;;;;;20.50;20.25;;;;;16.32;56.83;101601.09;5053685;28;47422;-73
2021/06/25 03:26:14;;;;;;;;;30.25;28.50;;;;;16.29;57.05;101602.06;5054480;28;45484;-73
2021/06/25 03:28:40;;;;;;;;;29.50;26.00;;;;;16.28;57.00;101595.06;5054804;28;45304;-74
2021/06/25 03:31:06;;;;;;;;;30.50;24.50;;;;;16.27;57.06;101593.31;5055132;28;45669;-73
2021/06/25 03:33:31;;;;;;;;;39.50;35.75;;;;;16.27;57.15;101603.00;5054639;28;46865;-72
2021/06/25 03:35:56;;;;;;;;;47.00;40.00;;;;;16.24;57.21;101600.47;5054746;28;45461;-73
2021/06/25 03:38:22;;;;;;;;;32.75;31.25;;;;;16.28;57.44;101608.25;5070118;28;45342;-73
2021/06/25 03:40:47;;;;;;;;;32.50;29.75;;;;;16.32;57.59;101606.38;5054629;28;45380;-73
2021/06/25 03:43:13;;;;;;;;;29.25;24.75;;;;;16.36;57.33;101605.38;5054452;28;46283;-73
2021/06/25 03:45:38;;;;;;;;;30.25;28.25;;;;;16.38;57.42;101603.56;5054636;28;45347;-73
2021/06/25 03:48:04;;;;;;;;;30.75;26.50;;;;;16.42;57.51;101607.84;5054818;28;45586;-72
2021/06/25 03:50:29;;;;;;;;;28.50;25.25;;;;;16.44;57.42;101611.28;5053582;28;45492;-72
2021/06/25 03:52:55;;;;;;;;;36.00;32.75;;;;;16.47;56.97;101605.94;5053743;28;45651;-73
2021/06/25 03:55:21;;;;;;;;;30.25;28.50;;;;;16.49;57.13;101603.22;5053934;28;45559;-73
2021/06/25 03:57:46;;;;;;;;;31.00;31.00;;;;;16.52;56.97;101606.66;5054515;28;45291;-72
2021/06/25 04:00:15;;;;;;;;;42.50;34.50;;;;;16.58;57.83;101599.44;5054882;28;45274;-72
2021/06/25 04:02:40;;;;;;;;;35.50;30.50;;;;;16.62;57.72;101598.44;5054061;28;47051;-72
2021/06/25 04:05:07;;;;;;;;;30.75;29.75;;;;;16.64;57.27;101600.09;5053384;28;45259;-74
2021/06/25 04:07:33;;;;;;;;;31.75;27.75;;;;;16.69;57.22;101598.19;5054443;28;45284;-72
2021/06/25 04:10:01;;;;;;;;;31.25;29.00;;;;;16.76;56.92;101596.22;5053997;28;45480;-72
2021/06/25 04:12:26;;;;;;;;;39.75;33.75;;;;;16.81;57.17;101585.50;5054017;28;46591;-72
2021/06/25 04:14:52;;;;;;;;;34.75;29.00;;;;;16.86;57.02;101588.88;5052974;28;45359;-72
2021/06/25 04:17:17;;;;;;;;;30.00;29.50;;;;;16.89;56.85;101586.97;5053759;28;45505;-72
2021/06/25 04:19:42;;;;;;;;;39.00;31.50;;;;;16.95;56.66;101589.44;5053195;28;45281;-73
2021/06/25 04:22:08;;;;;;;;;40.75;34.50;;;;;17.01;56.55;101596.28;5053598;28;45432;-72
2021/06/25 04:24:33;;;;;;;;;38.25;33.50;;;;;17.04;56.30;101584.72;5053844;28;45545;-73
2021/06/25 04:26:58;;;;;;;;;33.50;32.50;;;;;17.08;56.50;101586.38;5054005;28;45350;-73
2021/06/25 04:29:24;;;;;;;;;32.50;30.50;;;;;17.14;56.60;101591.47;5055483;28;45380;-74
2021/06/25 04:31:55;;;;;;;;;34.00;31.00;;;;;17.20;56.54;101596.53;5056542;28;46230;-73
2021/06/25 04:34:21;;;;;;;;;38.00;35.00;;;;;17.25;56.50;101593.72;5056474;28;45480;-73
2021/06/25 04:36:47;;;;;;;;;41.75;33.50;;;;;17.28;56.27;101597.16;5056918;28;45427;-72
2021/06/25 04:39:13;;;;;;;;;35.75;33.75;;;;;17.32;56.06;101592.59;5054947;28;45256;-73
2021/06/25 04:41:38;;;;;;;;;31.25;30.00;;;;;17.36;56.02;101589.78;5055620;28;47072;-73
2021/06/25 04:44:04;;;;;;;;;39.75;33.25;;;;;17.44;56.10;101593.94;5056076;28;45466;-72
2021/06/25 04:46:31;;;;;;;;;29.75;27.75;;;;;17.48;55.69;101595.59;5056033;28;45250;-71
2021/06/25 04:48:57;;;;;;;;;50.25;40.00;;;;;17.52;55.93;101591.88;5055486;28;45334;-72
2021/06/25 04:51:22;;;;;;;;;34.75;30.25;;;;;17.56;55.84;101588.22;5055588;28;46569;-72
2021/06/25 04:53:47;;;;;;;;;36.50;32.50;;;;;17.58;55.53;101592.53;5056115;28;45410;-72
2021/06/25 04:56:13;;;;;;;;;40.50;35.25;;;;;17.62;55.94;101601.25;5054919;28;45339;-73
2021/06/25 04:58:38;;;;;;;;;33.25;31.00;;;;;17.65;55.52;101584.38;5053048;28;45570;-72
2021/06/25 05:01:03;;;;;;;;;43.00;33.75;;;;;17.69;55.21;101589.53;5055409;28;46948;-74
2021/06/25 05:03:29;;;;;;;;;44.00;35.75;;;;;17.74;55.42;101587.56;5054946;28;45452;-73
2021/06/25 05:05:54;;;;;;;;;51.25;39.50;;;;;17.78;55.20;101593.59;5051747;28;45460;-73
2021/06/25 05:08:20;;;;;;;;;40.50;35.25;;;;;17.80;54.96;101594.41;5054596;28;45498;-73
2021/06/25 05:10:46;;;;;;;;;37.25;33.50;;;;;17.83;55.38;101589.06;5054951;28;46903;-72
2021/06/25 05:13:13;;;;;;;;;26.75;25.75;;;;;17.88;55.08;101591.53;5053432;28;45404;-73
2021/06/25 05:15:39;;;;;;;;;38.75;35.00;;;;;17.90;55.22;101585.25;5053251;28;45335;-73
2021/06/25 05:18:15;;;;;;;;;53.00;42.00;;;;;17.94;55.25;101588.63;5055180;28;45416;-73
2021/06/25 05:20:42;;;;;;;;;32.25;31.75;;;;;17.99;55.30;101584.88;5054971;28;45441;-72
2021/06/25 05:23:09;;;;;;;;;42.00;34.00;;;;;18.07;54.83;101592.56;5053263;28;45552;-74
2021/06/25 05:25:35;;;;;;;;;36.75;32.75;;;;;18.07;54.70;101594.31;5055437;28;45426;-72
2021/06/25 05:28:01;;;;;;;;;37.25;33.50;;;;;18.07;54.30;101589.91;5053209;28;45511;-73
2021/06/25 05:30:26;;;;;;;;;41.00;33.50;;;;;18.07;54.02;101589.91;5054664;28;46258;-72
2021/06/25 05:32:51;;;;;;;;;42.25;36.75;;;;;18.11;54.26;101591.50;5055569;28;45498;-73
2021/06/25 05:35:17;;;;;;;;;31.00;28.75;;;;;18.14;52.81;101588.75;5054682;28;45512;-71
2021/06/25 05:37:42;;;;;;;;;33.50;30.50;;;;;18.17;52.71;101595.72;5053515;28;45518;-72
2021/06/25 05:40:08;;;;;;;;;30.25;28.75;;;;;18.20;52.64;101595.59;5053649;28;46460;-80
2021/06/25 05:42:33;;;;;;;;;24.50;24.50;;;;;18.22;52.37;101583.16;5051810;28;45387;-78
2021/06/25 05:44:59;;;;;;;;;29.75;24.75;;;;;18.25;51.71;101590.97;5054904;28;45372;-80
2021/06/25 05:47:24;;;;;;;;;35.00;27.25;;;;;18.30;51.30;101590.81;5052438;28;45530;-78
2021/06/25 05:49:49;;;;;;;;;26.25;26.00;;;;;18.30;50.85;101588.16;5053694;28;45397;-73
2021/06/25 05:52:15;;;;;;;;;37.00;29.25;;;;;18.30;51.07;101585.50;5054085;28;45581;-74
2021/06/25 05:54:40;;;;;;;;;27.00;26.50;;;;;18.32;50.50;101586.31;5053649;28;45511;-72
2021/06/25 05:57:06;;;;;;;;;34.00;31.50;;;;;18.34;50.78;101595.94;5053951;28;45759;-73
2021/06/25 05:59:33;;;;;;;;;24.00;21.75;;;;;18.39;50.58;101603.69;5054104;28;46954;-73
2021/06/25 06:01:59;;;;;;;;;33.75;30.25;;;;;18.38;50.67;101602.00;5053872;28;47610;-74
2021/06/25 06:04:24;;;;;;;;;29.25;26.75;;;;;18.37;50.16;101595.81;5054524;28;45467;-74
2021/06/25 06:06:49;;;;;;;;;31.00;28.50;;;;;18.35;50.05;101604.75;5054011;28;45418;-73
2021/06/25 06:09:15;;;;;;;;;28.75;24.75;;;;;18.34;50.05;101603.03;5054463;28;45315;-73
2021/06/25 06:11:40;;;;;;;;;25.75;22.50;;;;;18.41;49.94;101601.84;5051735;28;45508;-73
2021/06/25 06:14:05;;;;;;;;;30.50;30.00;;;;;18.42;49.89;101604.47;5054343;28;45504;-73
2021/06/25 06:16:32;;;;;;;;;33.00;28.75;;;;;18.40;49.90;101606.31;5053324;28;45315;-71
2021/06/25 06:18:57;;;;;;;;;33.50;30.75;;;;;18.42;49.38;101601.81;5054220;28;45423;-73
2021/06/25 06:21:23;;;;;;;;;26.50;23.75;;;;;18.40;49.70;101593.06;5054159;28;45410;-72
2021/06/25 06:32:09;;;;;;;;;24.75;22.50;;;;;18.68;48.66;101594.59;5052865;28;45267;-72
2021/06/25 06:34:36;;;;;;;;;25.75;25.25;;;;;18.76;48.82;101595.19;5046759;28;45464;-72
2021/06/25 06:37:01;;;;;;;;;22.75;21.75;;;;;18.83;48.35;101588.69;5053109;28;45593;-72
2021/06/25 06:39:29;;;;;;;;;28.00;25.25;;;;;18.93;48.01;101586.53;5052285;28;45510;-72
2021/06/25 06:41:55;;;;;;;;;32.25;29.25;;;;;19.06;48.29;101587.72;5053259;28;45452;-73
2021/06/25 06:44:20;;;;;;;;;26.50;22.75;;;;;19.16;47.79;101577.56;5052673;28;45477;-72
2021/06/25 06:46:46;;;;;;;;;30.50;25.00;;;;;19.24;47.52;101574.63;5052952;28;45305;-74
2021/06/25 06:49:11;;;;;;;;;32.75;27.50;;;;;19.31;47.55;101584.03;5053951;28;46401;-75
2021/06/25 06:51:39;;;;;;;;;26.25;24.00;;;;;19.37;46.99;101575.78;5052434;28;45408;-76
2021/06/25 06:54:05;;;;;;;;;28.00;24.75;;;;;19.40;45.88;101580.09;5053561;28;45574;-75
2021/06/25 06:56:30;;;;;;;;;22.75;22.00;;;;;19.32;46.49;101577.78;5053701;28;45537;-76
2021/06/25 06:58:56;;;;;;;;;26.50;25.00;;;;;19.32;46.05;101588.41;5052362;28;46664;-75
2021/06/25 07:01:23;;;;;;;;;24.00;21.50;;;;;19.39;46.03;101581.03;5052943;28;45387;-75
2021/06/25 07:03:49;;;;;;;;;22.00;20.00;;;;;19.50;46.28;101586.75;5051813;28;45468;-75
2021/06/25 07:06:15;;;;;;;;;22.00;18.00;;;;;19.66;45.36;101582.50;5053179;28;45467;-73
2021/06/25 07:08:40;;;;;;;;;24.50;22.25;;;;;19.66;44.82;101582.50;5052730;28;46301;-73
2021/06/25 07:11:06;;;;;;;;;27.50;25.75;;;;;19.61;45.05;101591.56;5052076;28;45374;-74
2021/06/25 07:13:31;;;;;;;;;27.25;26.25;;;;;19.61;45.37;101583.63;5052767;28;45386;-75
2021/06/25 07:15:57;;;;;;;;;26.25;24.00;;;;;19.66;44.44;101574.53;5052681;28;45580;-73
2021/06/25 07:18:23;;;;;;;;;23.50;21.00;;;;;19.72;44.80;101589.34;5053747;28;45465;-73
2021/06/25 07:20:49;;;;;;;;;23.50;22.25;;;;;19.77;44.72;101583.81;5052719;28;45413;-72
2021/06/25 07:23:14;;;;;;;;;23.50;23.50;;;;;19.81;44.65;101574.78;5049490;28;45402;-73
2021/06/25 07:25:40;;;;;;;;;26.00;23.00;;;;;19.79;44.49;101576.66;5053032;28;45470;-74
2021/06/25 07:28:06;;;;;;;;;28.00;24.25;;;;;19.78;44.67;101577.56;5066834;28;47087;-74
2021/06/25 07:30:32;;;;;;;;;19.75;18.50;;;;;19.86;44.85;101570.13;5052040;28;45369;-74
2021/06/25 07:32:58;;;;;;;;;22.50;19.75;;;;;19.93;44.15;101568.91;5053829;28;45389;-74
2021/06/25 07:35:23;;;;;;;;;23.50;20.75;;;;;20.03;44.51;101558.72;5051921;28;45577;-74
2021/06/25 07:37:49;;;;;;;;;29.00;21.25;;;;;20.16;44.29;101562.50;5052650;28;45691;-73
2021/06/25 07:40:15;;;;;;;;;22.00;21.00;;;;;20.21;43.97;101556.97;5052583;28;45304;-74
2021/06/25 07:42:40;;;;;;;;;23.25;19.25;;;;;20.22;43.48;101564.03;5051433;28;45354;-73
2021/06/25 07:45:09;;;;;;;;;27.25;25.25;;;;;20.22;43.57;101559.56;5051720;28;45526;-74
2021/06/25 07:47:35;;;;;;;;;24.50;22.50;;;;;20.26;44.07;101561.16;5052545;28;45488;-74
2021/06/25 07:50:02;;;;;;;;;29.00;26.25;;;;;20.42;43.91;101561.25;5050241;28;45529;-75
2021/06/25 07:52:28;;;;;;;;;25.00;22.75;;;;;20.62;43.46;101557.69;5050684;28;45463;-75
2021/06/25 07:54:53;;;;;;;;;27.00;25.00;;;;;20.84;42.66;101567.25;5051833;28;45721;-74
2021/06/25 07:57:18;;;;;;;;;20.50;20.50;;;;;20.85;42.11;101559.16;5050270;28;46796;-73
2021/06/25 07:59:44;;;;;;;;;22.25;20.25;;;;;20.83;41.94;101550.41;5052556;28;45465;-74
2021/06/25 08:02:09;;;;;;;;;24.75;22.50;;;;;20.93;42.51;101551.69;5052326;28;45411;-72
2021/06/25 08:04:35;;;;;;;;;18.00;16.50;;;;;21.10;41.99;101549.97;5053793;28;45161;-73
2021/06/25 08:07:00;;;;;;;;;24.75;22.25;;;;;21.25;42.12;101538.50;5056022;28;45808;-77
2021/06/25 08:09:25;;;;;;;;;28.00;22.50;;;;;21.34;41.55;101543.34;5056359;28;45304;-75
2021/06/25 08:11:51;;;;;;;;;23.50;22.75;;;;;21.39;40.57;101535.13;5049823;28;45422;-75
2021/06/25 08:14:16;;;;;;;;;22.00;21.00;;;;;21.30;40.88;101538.25;5054665;28;45425;-74
2021/06/25 08:16:42;;;;;;;;;27.00;22.25;;;;;21.20;41.59;101533.41;5055111;28;45283;-75
2021/06/25 08:19:08;;;;;;;;;26.50;24.00;;;;;21.09;41.47;101538.44;5055545;28;45507;-75
2021/06/25 08:21:34;;;;;;;;;20.75;17.75;;;;;21.01;41.63;101537.97;5052637;28;45618;-74
2021/06/25 08:24:00;;;;;;;;;27.75;25.00;;;;;21.04;41.43;101540.47;5055489;28;45534;-74
2021/06/25 08:26:25;;;;;;;;;21.75;20.25;;;;;21.17;41.92;101536.25;5054145;28;46110;-74
2021/06/25 08:28:52;;;;;;;;;22.75;20.25;;;;;21.18;41.46;101529.97;5053651;28;45526;-74
2021/06/25 08:31:18;;;;;;;;;23.25;18.75;;;;;21.33;40.73;101546.97;5055044;28;45705;-74
2021/06/25 08:33:43;;;;;;;;;19.00;15.00;;;;;21.43;40.20;101536.72;5050890;28;45514;-74
2021/06/25 08:36:09;;;;;;;;;26.50;23.50;;;;;21.42;39.44;101522.50;5055610;28;46080;-76
2021/06/25 08:38:35;;;;;;;;;24.00;22.50;;;;;21.48;40.21;101525.81;5055231;28;45436;-74
2021/06/25 08:41:01;;;;;;;;;20.00;19.00;;;;;21.58;40.35;101525.22;5054058;28;45508;-75
2021/06/25 08:43:27;;;;;;;;;26.75;23.00;;;;;21.66;40.37;101511.47;5055329;28;45448;-75
2021/06/25 08:45:53;;;;;;;;;32.25;29.25;;;;;21.81;40.23;101517.81;5053175;28;46405;-79
2021/06/25 08:48:23;;;;;;;;;23.00;19.00;;;;;21.98;39.94;101515.06;5055312;28;45393;-75
2021/06/25 08:50:56;;;;;;;;;28.50;19.75;;;;;21.97;39.17;101520.47;5055143;28;46436;-76
2021/06/25 08:53:22;;;;;;;;;22.50;19.50;;;;;21.86;38.90;101523.75;5054099;28;45553;-76
2021/06/25 08:55:47;;;;;;;;;23.00;20.50;;;;;21.81;39.95;101505.34;5051712;28;47336;-75
2021/06/25 08:58:15;;;;;;;;;25.75;20.25;;;;;21.94;40.25;101512.66;5054574;28;45376;-76
2021/06/25 09:00:41;;;;;;;;;24.50;20.25;;;;;22.06;39.89;101502.16;5055258;28;45344;-76
2021/06/25 09:03:07;;;;;;;;;17.00;17.00;;;;;22.30;39.39;101507.06;5055524;28;45344;-78
2021/06/25 09:05:32;;;;;;;;;20.25;15.00;;;;;22.45;39.59;101508.88;5055408;28;46121;-77
2021/06/25 09:07:58;;;;;;;;;20.00;17.75;;;;;22.59;38.68;101507.19;5054843;28;45494;-75
2021/06/25 09:10:39;;;;;;;;;18.75;18.75;;;;;22.70;38.55;101512.75;5054727;28;45721;-74
2021/06/25 09:13:11;;;;;;;;;15.00;15.00;;;;;22.74;38.53;101508.97;5054821;28;45717;-76
2021/06/25 09:15:40;;;;;;;;;21.50;19.25;;;;;22.72;39.05;101512.69;5054197;28;46297;-77
2021/06/25 09:18:07;;;;;;;;;16.25;14.00;;;;;22.63;39.07;101520.25;5056337;28;45358;-74
2021/06/25 09:20:39;;;;;;;;;18.50;17.75;;;;;22.62;39.69;101490.97;5050660;28;45479;-75
2021/06/25 09:23:06;;;;;;;;;22.00;19.50;;;;;22.73;39.23;101506.38;5054237;28;45577;-74
2021/06/25 09:25:52;;;;;;;;;16.00;14.50;;;;;22.81;39.60;101498.75;5049367;28;45522;-76
2021/06/25 09:28:24;;;;;;;;;17.25;16.50;;;;;23.06;39.09;101492.84;5065124;28;45539;-75
2021/06/25 09:30:50;;;;;;;;;14.75;14.75;;;;;23.23;39.12;101498.00;5059332;28;45672;-75
2021/06/25 09:33:16;;;;;;;;;16.00;15.00;;;;;23.34;39.23;101494.69;5065531;28;45477;-76
2021/06/25 09:35:41;;;;;;;;;21.00;21.00;;;;;23.49;38.85;101485.72;5065478;28;44921;-75
2021/06/25 09:38:07;;;;;;;;;15.50;13.75;;;;;23.73;38.83;101486.00;5052701;28;45574;-75
2021/06/25 09:40:37;;;;;;;;;21.25;19.25;;;;;23.82;38.22;101468.53;5051459;28;45283;-74
2021/06/25 09:43:13;;;;;;;;;15.00;15.00;;;;;23.95;36.98;101465.91;5053496;28;45434;-74
2021/06/25 09:45:51;;;;;;;;;12.25;12.25;;;;;24.06;38.27;101476.78;5054743;28;46170;-76
2021/06/25 09:48:17;;;;;;;;;14.75;12.75;;;;;24.11;37.66;101480.00;5049824;28;45470;-77
2021/06/25 09:50:44;;;;;;;;;14.25;13.50;;;;;24.28;37.55;101470.84;5053914;28;45501;-74
2021/06/25 09:53:10;;;;;;;;;15.00;11.25;;;;;24.51;37.13;101466.69;5053963;28;45378;-75
2021/06/25 09:55:52;;;;;;;;;16.75;13.25;;;;;24.68;36.91;101475.41;5050626;28;46377;-76
2021/06/25 09:58:39;;;;;;;;;16.50;15.00;;;;;24.78;36.96;101463.09;5054516;28;45444;-75
2021/06/25 10:01:22;;;;;;;;;19.00;15.00;;;;;25.04;37.25;101461.28;5041036;28;45335;-78
2021/06/25 10:03:52;;;;;;;;;13.75;12.75;;;;;25.37;37.41;101462.59;5039108;28;45399;-76
2021/06/25 10:06:22;;;;;;;;;17.25;16.50;;;;;25.72;36.14;101469.91;5053279;28;46314;-73
2021/06/25 10:08:49;;;;;;;;;13.00;12.00;;;;;25.96;35.80;101481.56;5050112;28;45342;-76
2021/06/25 10:11:17;;;;;;;;;13.25;13.00;;;;;26.00;35.38;101477.69;5050302;28;45560;-76
2021/06/25 10:13:44;;;;;;;;;12.00;10.50;;;;;26.06;35.27;101471.03;5053984;28;45454;-77
2021/06/25 10:16:10;;;;;;;;;14.00;11.75;;;;;26.21;35.23;101463.66;5054047;28;47152;-76
2021/06/25 10:18:37;;;;;;;;;13.50;12.25;;;;;26.38;35.30;101465.06;5054788;28;45572;-78
2021/06/25 10:21:04;;;;;;;;;9.75;8.50;;;;;26.37;34.54;101460.69;5055008;28;45299;-78
2021/06/25 10:23:33;;;;;;;;;12.00;10.75;;;;;26.45;34.95;101458.25;5053833;28;45473;-78
2021/06/25 10:26:00;;;;;;;;;11.00;10.50;;;;;26.49;34.61;101455.22;5052826;28;46097;-76
2021/06/25 10:28:27;;;;;;;;;8.00;7.50;;;;;26.54;34.16;101451.38;5053996;28;45280;-75
2021/06/25 10:30:52;;;;;;;;;12.25;8.50;;;;;26.57;33.55;101457.34;5054515;28;45347;-78
2021/06/25 10:33:19;;;;;;;;;7.50;7.50;;;;;26.47;34.42;101464.38;5055253;28;45477;-77
2021/06/25 10:35:49;;;;;;;;;9.50;8.75;;;;;26.23;34.19;101453.66;5049310;28;46901;-78
2021/06/25 10:38:15;;;;;;;;;12.75;10.00;;;;;26.01;35.26;101446.38;5053321;28;45516;-77
2021/06/25 10:40:54;;;;;;;;;6.00;6.00;;;;;26.03;34.90;101455.16;5052136;28;45600;-77
2021/06/25 10:43:53;;;;;;;;;6.75;6.00;;;;;26.04;34.35;101460.38;5051568;28;45548;-77
2021/06/25 10:46:37;;;;;;;;;6.00;4.00;;;;;26.07;35.06;101456.63;5038040;28;47112;-77
2021/06/25 10:49:14;;;;;;;;;6.33;6.33;;;;;25.92;35.08;101458.63;5052214;28;45409;-76
2021/06/25 10:51:44;;;;;;;;;6.00;6.00;;;;;25.77;35.84;101454.38;5050244;28;45442;-76
2021/06/25 10:54:21;;;;;;;;;6.67;6.67;;;;;25.82;36.32;101457.56;5054904;28;45606;-74
2021/06/25 10:56:49;;;;;;;;;5.00;5.00;;;;;25.76;35.55;101458.00;5054152;28;45578;-76
2021/06/25 10:59:29;;;;;;;;;8.33;6.33;;;;;25.70;35.71;101455.78;5053001;28;45384;-76
2021/06/25 11:02:03;;;;;;;;;7.67;7.67;;;;;25.51;36.17;101454.41;5053586;28;45658;-76
2021/06/25 11:04:36;;;;;;;;;6.67;6.67;;;;;25.31;36.07;101453.16;5053621;28;45322;-75
2021/06/25 11:07:09;;;;;;;;;7.33;6.33;;;;;25.27;36.81;101445.47;5053149;28;47158;-75
2021/06/25 11:09:51;;;;;;;;;9.33;6.00;;;;;25.33;37.04;101445.84;5053209;28;45500;-76
2021/06/25 11:12:22;;;;;;;;;6.33;5.33;;;;;25.45;37.45;101451.31;5050048;28;45544;-76
2021/06/25 11:14:49;;;;;;;;;9.50;7.00;;;;;25.57;37.30;101450.44;5053564;28;45474;-76
2021/06/25 11:17:52;;;;;;;;;8.00;7.00;;;;;25.46;37.53;101450.34;5052973;28;46421;-75